Time;durP1;ratioP1;P1;durP2;ratioP2;P2;SDS_P1;SDS_P2;PMS_P1;PMS_P2;Temp;Humidity;BMP_temperature;BMP_pressure;BME280_temperature;BME280_humidity;BME280_pressure;Samples;Min_cycle;Max_cycle;Signal;HPM_P1;HPM_P2
2023/02/12 00:04:47;;;;;;;46.58;28.10;;;;;;;7.07;81.36;102515.97;10198343;29;20040;-80
2023/02/12 00:09:50;;;;;;;47.25;27.05;;;;;;;6.95;81.80;102506.56;10196233;29;20043;-79
2023/02/12 00:14:54;;;;;;;51.42;29.77;;;;;;;6.85;82.35;102516.63;10179797;29;20040;-80
2023/02/12 00:19:57;;;;;;;48.10;27.08;;;;;;;6.78;82.24;102514.22;10189818;29;20482;-79
2023/02/12 00:25:00;;;;;;;50.30;26.23;;;;;;;6.66;82.82;102517.25;10199341;29;20052;-79
2023/02/12 00:30:05;;;;;;;42.58;26.45;;;;;;;6.80;82.12;102518.59;10203722;29;20080;-80
2023/02/12 00:35:09;;;;;;;50.45;27.38;;;;;;;6.82;82.10;102515.88;10187621;29;20052;-78
2023/02/12 00:40:12;;;;;;;45.97;23.33;;;;;;;6.78;82.06;102527.59;10204367;29;20098;-79
2023/02/12 00:45:17;;;;;;;50.95;25.27;;;;;;;6.83;82.06;102528.31;10217760;29;20040;-80
2023/02/12 00:50:20;;;;;;;43.03;25.20;;;;;;;6.78;81.86;102530.25;10198902;29;20107;-78
2023/02/12 00:55:23;;;;;;;31.52;17.50;;;;;;;6.66;82.35;102538.63;10195572;29;20072;-80
2023/02/12 01:00:27;;;;;;;40.95;26.55;;;;;;;6.87;81.88;102531.75;10212561;29;20047;-80
2023/02/12 01:05:32;;;;;;;43.28;26.63;;;;;;;6.78;82.58;102539.13;10209160;29;20479;-80
2023/02/12 01:10:35;;;;;;;39.08;22.05;;;;;;;6.74;81.61;102536.59;10199344;29;20048;-80
2023/02/12 01:15:39;;;;;;;46.78;25.67;;;;;;;7.04;81.01;102534.78;10205252;29;20043;-80
2023/02/12 01:20:42;;;;;;;48.00;25.13;;;;;;;7.12;80.33;102537.22;10205988;29;20048;-79
2023/02/12 01:25:45;;;;;;;42.75;24.27;;;;;;;6.96;80.81;102540.38;10207351;29;20099;-79
2023/02/12 01:30:49;;;;;;;45.40;23.73;;;;;;;7.14;80.07;102549.63;10192223;29;20044;-79
2023/02/12 01:35:52;;;;;;;41.72;22.20;;;;;;;7.04;79.89;102545.50;10179119;29;20079;-79
2023/02/12 01:41:02;;;;;;;39.20;22.17;;;;;;;6.99;80.18;102550.09;10177576;29;20058;-80
2023/02/12 01:46:12;;;;;;;39.28;22.17;;;;;;;6.88;81.18;102561.13;10191278;29;20122;-80
2023/02/12 01:51:20;;;;;;;45.92;23.08;;;;;;;6.93;80.32;102552.97;10216751;29;20048;-79
2023/02/12 01:56:24;;;;;;;39.88;22.17;;;;;;;6.97;80.57;102550.16;10204876;29;20104;-79
2023/02/12 02:01:32;;;;;;;41.33;23.25;;;;;;;6.93;80.67;102552.97;10201733;29;20253;-79
2023/02/12 02:06:39;;;;;;;38.45;23.17;;;;;;;7.21;79.49;102551.19;10201299;29;20059;-81
2023/02/12 02:17:24;;;;;;;36.53;23.50;;;;;;;7.07;79.88;102550.72;10225749;29;20128;-80
2023/02/12 02:22:34;;;;;;;37.85;22.65;;;;;;;7.13;79.60;102539.88;10204196;29;20677;-80
2023/02/12 02:27:45;;;;;;;43.45;23.40;;;;;;;7.05;79.16;102531.22;10212690;29;20044;-81
2023/02/12 02:32:58;;;;;;;44.78;25.02;;;;;;;7.15;79.56;102535.31;10209693;29;20531;-81
2023/02/12 02:38:14;;;;;;;41.92;24.02;;;;;;;7.06;79.90;102525.81;10209349;29;20054;-80
2023/02/12 02:43:23;;;;;;;40.22;23.65;;;;;;;7.05;79.41;102532.09;10220419;29;20078;-81
2023/02/12 02:48:33;;;;;;;42.83;24.45;;;;;;;7.02;80.09;102516.16;10219450;29;20067;-78
2023/02/12 02:53:42;;;;;;;42.97;24.55;;;;;;;7.06;79.93;102523.13;10199186;29;20052;-79
2023/02/12 02:58:52;;;;;;;48.63;24.13;;;;;;;6.91;80.87;102523.66;10203707;29;20086;-77
2023/02/12 03:04:03;;;;;;;42.65;26.08;;;;;;;7.03;80.90;102523.25;10219699;29;20071;-78
2023/02/12 03:09:19;;;;;;;55.22;26.70;;;;;;;6.73;82.97;102532.19;10213925;29;20048;-79
2023/02/12 03:14:26;;;;;;;47.60;27.02;;;;;;;6.60;84.21;102526.34;10191305;29;20044;-80
2023/02/12 03:19:35;;;;;;;51.20;27.92;;;;;;;6.69;84.39;102530.53;10190782;29;20080;-79
2023/02/12 03:24:42;;;;;;;50.78;27.30;;;;;;;6.48;85.19;102530.25;10190337;29;20040;-81
2023/02/12 03:29:46;;;;;;;53.17;27.98;;;;;;;6.42;85.97;102525.13;10190824;29;20083;-81
2023/02/12 03:34:54;;;;;;;53.67;28.30;;;;;;;6.40;86.35;102525.13;10216819;29;20050;-80
2023/02/12 03:40:05;;;;;;;60.55;28.55;;;;;;;6.28;87.01;102530.84;10216108;29;20048;-80
2023/02/12 03:45:18;;;;;;;57.63;31.52;;;;;;;6.16;88.04;102525.84;10222772;29;20051;-81
2023/02/12 03:50:29;;;;;;;54.30;30.13;;;;;;;6.46;87.02;102528.56;10197374;29;20100;-80
2023/02/12 03:55:36;;;;;;;64.85;32.67;;;;;;;6.53;86.60;102527.47;10208875;29;20068;-81
2023/02/12 04:00:39;;;;;;;59.40;31.85;;;;;;;6.48;86.95;102538.28;10202878;29;20055;-80
2023/02/12 04:05:44;;;;;;;70.80;33.30;;;;;;;6.60;86.28;102545.03;10216882;29;20047;-79
2023/02/12 04:11:02;;;;;;;60.78;32.20;;;;;;;6.48;86.53;102561.44;10215321;29;20079;-78
2023/02/12 04:16:16;;;;;;;70.40;34.38;;;;;;;6.60;86.51;102561.06;10199268;29;20052;-78
2023/02/12 04:21:38;;;;;;;62.95;33.80;;;;;;;6.72;86.24;102571.41;10201717;29;20408;-79
2023/02/12 04:26:49;;;;;;;70.07;36.30;;;;;;;6.76;86.10;102577.50;10217208;29;20044;-79
2023/02/12 04:31:58;;;;;;;69.57;36.45;;;;;;;6.72;86.08;102581.19;10211631;29;20111;-80
2023/02/12 04:37:05;;;;;;;65.13;33.80;;;;;;;6.69;85.99;102595.53;10214008;29;20104;-80
2023/02/12 04:42:09;;;;;;;66.25;37.28;;;;;;;6.73;85.93;102593.63;10210837;29;20048;-78
2023/02/12 04:47:12;;;;;;;68.82;35.50;;;;;;;6.71;85.94;102591.00;10217370;29;20459;-79
2023/02/12 04:52:16;;;;;;;74.75;36.30;;;;;;;6.66;86.23;102600.06;10211394;29;20048;-78
2023/02/12 04:57:19;;;;;;;75.95;37.25;;;;;;;6.59;86.85;102596.72;10189514;29;20196;-80
2023/02/12 05:02:22;;;;;;;79.65;39.25;;;;;;;6.70;86.51;102599.94;10189726;29;20043;-80
2023/02/12 05:07:26;;;;;;;83.72;41.03;;;;;;;6.63;86.74;102603.69;10188527;29;20044;-80
2023/02/12 05:12:29;;;;;;;78.90;39.10;;;;;;;6.64;86.59;102597.47;10187823;29;20056;-78
2023/02/12 05:17:32;;;;;;;76.85;39.67;;;;;;;6.49;87.27;102601.44;10200948;29;20044;-80
2023/02/12 05:22:36;;;;;;;75.53;38.65;;;;;;;6.42;87.72;102598.97;10204816;29;20510;-79
2023/02/12 05:27:39;;;;;;;69.85;34.95;;;;;;;6.31;88.35;102608.19;10197294;29;20868;-79
2023/02/12 05:32:42;;;;;;;70.75;36.45;;;;;;;6.40;87.91;102597.22;10199386;29;20052;-79
2023/02/12 05:37:46;;;;;;;72.95;37.08;;;;;;;6.29;88.08;102593.13;10195664;29;20143;-78
2023/02/12 05:42:49;;;;;;;72.68;37.83;;;;;;;6.12;88.65;102590.94;10213592;29;20039;-79
2023/02/12 05:47:52;;;;;;;79.78;37.58;;;;;;;6.20;89.12;102599.59;10192799;29;20055;-79
2023/02/12 05:52:56;;;;;;;67.53;34.03;;;;;;;6.20;89.10;102596.03;10178709;29;20041;-79
2023/02/12 05:57:58;;;;;;;66.72;35.03;;;;;;;6.10;89.57;102588.28;10176103;29;20067;-79
2023/02/12 06:03:01;;;;;;;70.45;34.65;;;;;;;6.11;89.34;102597.16;10177231;29;20055;-80
2023/02/12 06:08:06;;;;;;;70.47;37.20;;;;;;;6.20;89.43;102598.69;10177046;29;20108;-79
2023/02/12 06:13:08;;;;;;;72.57;35.40;;;;;;;6.31;88.84;102596.63;10201999;29;20047;-79
2023/02/12 06:18:11;;;;;;;68.28;34.85;;;;;;;6.28;89.06;102594.94;10190255;29;20083;-79
2023/02/12 06:23:15;;;;;;;69.75;34.08;;;;;;;6.24;89.17;102590.56;10175538;29;20051;-79
2023/02/12 06:28:18;;;;;;;70.28;35.05;;;;;;;5.92;91.10;102599.44;10174838;29;20161;-82
2023/02/12 06:33:21;;;;;;;70.68;35.55;;;;;;;5.80;91.69;102600.66;10175976;29;20496;-80
2023/02/12 06:38:25;;;;;;;70.55;34.85;;;;;;;5.96;90.76;102598.47;10202458;29;20054;-79
2023/02/12 06:43:28;;;;;;;65.18;32.40;;;;;;;6.00;90.23;102597.44;10204149;29;20600;-79
2023/02/12 06:48:32;;;;;;;72.28;36.35;;;;;;;6.05;90.66;102611.53;10182645;29;20040;-81
2023/02/12 06:53:37;;;;;;;71.72;35.17;;;;;;;5.95;91.04;102623.38;10183505;29;20096;-80
2023/02/12 06:58:43;;;;;;;70.22;35.00;;;;;;;5.86;91.34;102615.63;10182827;29;20064;-80
2023/02/12 07:03:48;;;;;;;71.43;33.72;;;;;;;5.94;90.61;102626.97;10183790;29;20044;-80
2023/02/12 07:08:53;;;;;;;68.63;34.67;;;;;;;6.03;90.39;102640.06;10182907;29;20051;-79
2023/02/12 07:13:56;;;;;;;66.00;35.22;;;;;;;6.21;89.83;102635.16;10182750;29;20056;-80
2023/02/12 07:18:59;;;;;;;76.18;36.88;;;;;;;6.21;89.31;102644.03;10182900;29;20095;-80
2023/02/12 07:24:03;;;;;;;12.18;6.72;;;;;;;6.44;88.84;102654.09;10183651;29;20048;-80
2023/02/12 07:29:06;;;;;;;116.45;48.40;;;;;;;6.67;89.33;102666.81;10205572;29;20044;-80
2023/02/12 07:34:10;;;;;;;92.60;42.50;;;;;;;6.63;88.46;102674.00;10189871;29;20100;-80
2023/02/12 07:39:14;;;;;;;78.68;37.83;;;;;;;6.15;90.00;102678.91;10180515;29;20044;-80
2023/02/12 07:44:17;;;;;;;72.85;36.47;;;;;;;6.46;88.48;102683.44;10180487;29;20083;-79
2023/02/12 07:49:23;;;;;;;76.85;37.90;;;;;;;6.60;88.30;102683.91;10182003;29;20056;-81
2023/02/12 07:54:28;;;;;;;69.90;35.63;;;;;;;6.47;88.35;102682.50;10181699;29;20051;-78
2023/02/12 07:59:30;;;;;;;71.50;36.75;;;;;;;6.67;87.99;102684.63;10180877;29;20044;-80
2023/02/12 08:04:33;;;;;;;77.80;38.85;;;;;;;6.74;87.88;102683.53;10181199;29;20523;-81
2023/02/12 08:09:37;;;;;;;72.55;35.60;;;;;;;6.62;87.44;102692.78;10252426;23;20071;-80
2023/02/12 08:14:40;;;;;;;75.28;35.03;;;;;;;6.53;87.77;102693.03;10257793;29;20047;-80
2023/02/12 08:19:43;;;;;;;65.15;34.15;;;;;;;6.54;87.78;102695.66;10259476;28;20035;-79
2023/02/12 08:24:48;;;;;;;67.53;35.10;;;;;;;6.47;88.56;102710.06;10254406;28;20511;-80
2023/02/12 08:29:51;;;;;;;72.30;36.20;;;;;;;6.52;88.38;102709.97;10252509;29;20039;-82
2023/02/12 08:34:54;;;;;;;73.63;36.13;;;;;;;6.37;88.59;102719.25;10257482;29;20039;-80
2023/02/12 08:39:58;;;;;;;80.10;38.38;;;;;;;6.51;88.65;102722.44;10259039;29;20035;-80
2023/02/12 08:45:01;;;;;;;81.00;37.60;;;;;;;6.57;88.57;102721.41;10258523;28;20051;-80
2023/02/12 08:50:04;;;;;;;79.30;38.22;;;;;;;6.58;88.77;102718.69;10254392;29;20071;-84
2023/02/12 08:55:09;;;;;;;81.95;38.88;;;;;;;6.42;89.66;102733.38;10255663;28;20083;-81
2023/02/12 09:00:12;;;;;;;84.03;36.20;;;;;;;6.50;89.37;102725.13;10261414;28;20050;-78
2023/02/12 09:05:15;;;;;;;80.95;38.38;;;;;;;6.49;89.16;102737.63;10259533;29;20073;-78
2023/02/12 09:10:19;;;;;;;80.30;38.65;;;;;;;6.62;89.24;102735.50;10250265;29;20043;-80
2023/02/12 09:15:22;;;;;;;74.93;37.15;;;;;;;6.47;89.66;102741.25;10258826;29;20051;-79
2023/02/12 09:20:25;;;;;;;76.65;36.42;;;;;;;6.70;89.26;102746.88;10256989;28;20495;-79
2023/02/12 09:25:29;;;;;;;67.75;33.75;;;;;;;6.34;90.72;102744.25;10256713;29;20071;-78
2023/02/12 09:30:32;;;;;;;69.65;31.80;;;;;;;6.13;91.81;102750.13;10253227;28;20047;-77
2023/02/12 09:35:36;;;;;;;73.78;36.67;;;;;;;6.56;90.97;102752.56;10256917;28;20043;-78
2023/02/12 09:40:46;;;;;;;73.13;34.75;;;;;;;6.30;91.81;102758.56;10255723;28;20043;-78
2023/02/12 09:45:56;;;;;;;71.15;35.40;;;;;;;6.39;91.34;102750.34;10254610;28;20098;-78
2023/02/12 09:51:04;;;;;;;77.38;37.25;;;;;;;6.57;90.28;102764.13;10256295;28;20043;-78
2023/02/12 09:56:14;;;;;;;76.60;39.20;;;;;;;6.10;92.66;102768.88;10249667;28;20051;-79
2023/02/12 10:01:19;;;;;;;90.47;38.97;;;;;;;6.53;91.37;102771.34;10250381;29;20043;-78
2023/02/12 10:06:25;;;;;;;85.50;41.33;;;;;;;6.40;91.20;102768.13;10253413;28;20498;-81
2023/02/12 10:11:50;;;;;;;90.40;40.72;;;;;;;6.64;90.58;102760.38;10259202;28;20098;-79
2023/02/12 10:17:03;;;;;;;88.38;39.28;;;;;;;6.74;90.34;102769.88;10261639;29;20103;-78
2023/02/12 10:22:18;;;;;;;87.72;39.78;;;;;;;6.97;89.83;102766.63;10251354;29;20043;-82
2023/02/12 10:27:34;;;;;;;89.25;40.15;;;;;;;6.95;89.99;102759.56;10268712;28;20043;-81
2023/02/12 10:32:38;;;;;;;89.60;40.60;;;;;;;6.76;89.71;102762.72;10268541;29;20035;-82
2023/02/12 10:37:45;;;;;;;84.40;40.55;;;;;;;7.16;89.38;102774.09;10263729;29;20047;-80
2023/02/12 10:42:51;;;;;;;86.20;40.63;;;;;;;7.25;89.32;102772.06;10251853;28;20051;-81
2023/02/12 10:48:04;;;;;;;79.05;37.00;;;;;;;7.03;88.22;102769.13;10256809;29;20503;-80
2023/02/12 10:53:16;;;;;;;79.15;36.08;;;;;;;7.14;88.47;102759.94;10261832;29;20047;-82
2023/02/12 10:58:23;;;;;;;77.87;37.13;;;;;;;7.57;88.50;102769.34;10263593;29;20526;-82
2023/02/12 11:03:33;;;;;;;71.55;36.97;;;;;;;7.76;87.99;102758.94;10267345;28;20325;-80
2023/02/12 11:08:37;;;;;;;76.93;35.90;;;;;;;7.51;87.63;102751.66;10263192;28;20113;-81
2023/02/12 11:13:47;;;;;;;65.60;32.38;;;;;;;7.32;86.41;102751.34;10262367;28;20092;-81
2023/02/12 11:18:58;;;;;;;62.40;33.75;;;;;;;7.44;85.89;102750.13;10253912;29;20035;-79
2023/02/12 11:24:29;;;;;;;59.17;29.77;;;;;;;7.61;84.71;102747.81;10248946;28;20055;-78
2023/02/12 11:29:33;;;;;;;54.58;27.25;;;;;;;8.00;85.65;102744.78;10264135;29;20043;-79
2023/02/12 11:34:37;;;;;;;45.25;26.23;;;;;;;7.94;84.72;102737.81;10255896;29;20039;-79
2023/02/12 11:39:40;;;;;;;48.17;25.52;;;;;;;7.74;84.68;102734.91;10254040;28;20039;-80
2023/02/12 11:44:51;;;;;;;45.00;24.00;;;;;;;8.22;83.12;102728.88;10267451;28;20047;-80
2023/02/12 11:49:58;;;;;;;42.78;24.08;;;;;;;8.01;82.58;102733.16;10273470;28;20050;-79
2023/02/12 11:55:05;;;;;;;40.55;22.90;;;;;;;8.51;82.13;102724.34;10276939;29;20055;-80
2023/02/12 12:00:17;;;;;;;38.22;21.38;;;;;;;8.24;80.87;102721.66;10254507;29;20047;-81
2023/02/12 12:05:31;;;;;;;33.00;20.05;;;;;;;8.38;81.13;102718.50;10259878;29;20054;-78
2023/02/12 12:10:39;;;;;;;33.67;19.88;;;;;;;8.49;81.07;102718.16;10258304;29;20047;-78
2023/02/12 12:21:14;;;;;;;26.23;15.77;;;;;;;8.77;82.16;102702.84;10253515;29;20078;-78
2023/02/12 12:26:23;;;;;;;23.95;14.52;;;;;;;8.07;80.88;102706.16;10254566;29;20043;-80
2023/02/12 12:31:32;;;;;;;25.55;15.20;;;;;;;8.33;81.62;102699.91;10256317;28;20050;-80
2023/02/12 12:37:12;;;;;;;26.20;14.68;;;;;;;8.46;80.17;102713.78;10252561;28;20049;-79
2023/02/12 12:42:29;;;;;;;27.65;16.33;;;;;;;8.66;82.76;102706.84;10270938;28;20043;-81
2023/02/12 12:47:45;;;;;;;27.48;16.73;;;;;;;8.72;81.47;102698.56;10251695;29;20461;-80
2023/02/12 12:53:04;;;;;;;25.88;15.25;;;;;;;8.42;80.59;102685.34;10265449;28;20043;-78
2023/02/12 12:58:15;;;;;;;28.02;16.02;;;;;;;8.80;82.25;102685.75;10251109;29;20051;-78
2023/02/12 13:03:35;;;;;;;25.02;14.65;;;;;;;8.86;81.69;102679.31;10256062;28;20379;-78
2023/02/12 13:08:52;;;;;;;23.83;14.07;;;;;;;8.53;80.49;102680.50;10255972;29;20049;-81
2023/02/12 13:14:07;;;;;;;21.63;13.82;;;;;;;8.48;81.10;102671.75;10243482;29;20050;-81
2023/02/12 13:19:18;;;;;;;21.60;12.88;;;;;;;8.52;81.87;102665.34;10258377;29;20023;-81
2023/02/12 13:24:30;;;;;;;17.45;11.48;;;;;;;8.46;81.25;102670.94;10254498;29;20043;-79
2023/02/12 13:29:38;;;;;;;16.30;10.37;;;;;;;8.45;80.75;102662.91;10254984;29;20047;-77
2023/02/12 13:34:44;;;;;;;11.48;7.75;;;;;;;8.39;80.75;102664.91;10254071;29;20435;-78
2023/02/12 13:39:49;;;;;;;11.25;7.28;;;;;;;8.43;81.26;102676.38;10272840;28;20501;-81
2023/02/12 13:45:00;;;;;;;9.90;7.07;;;;;;;8.69;82.92;102664.72;10254007;29;20142;-80
2023/02/12 13:50:20;;;;;;;14.70;8.52;;;;;;;9.10;83.51;102661.41;10261493;28;20079;-81
2023/02/12 13:55:29;;;;;;;9.85;6.43;;;;;;;9.29;82.56;102663.31;10270975;28;20157;-80
2023/02/12 14:00:58;;;;;;;8.10;5.75;;;;;;;9.15;82.08;102662.13;10245339;28;20039;-79
2023/02/12 14:06:15;;;;;;;10.20;6.93;;;;;;;8.95;81.53;102674.47;10244628;29;20055;-78
2023/02/12 14:11:22;;;;;;;9.00;5.90;;;;;;;8.80;82.56;102675.03;10253096;29;20035;-79
2023/02/12 14:16:40;;;;;;;10.52;6.47;;;;;;;8.77;82.15;102672.47;10254125;28;20078;-78
2023/02/12 14:21:44;;;;;;;12.00;6.38;;;;;;;8.77;83.14;102662.63;10257515;29;20038;-78
2023/02/12 14:26:47;;;;;;;7.93;5.82;;;;;;;8.74;83.15;102661.88;10251236;29;20044;-79
2023/02/12 14:31:50;;;;;;;12.23;6.60;;;;;;;8.75;83.49;102661.84;10255307;29;20105;-78
2023/02/12 14:37:14;;;;;;;8.85;5.70;;;;;;;8.69;82.57;102671.88;10252749;29;20495;-78
2023/02/12 14:49:05;;;;;;;7.47;5.65;;;;;;;8.71;83.74;102668.22;10253392;29;20119;-79
2023/02/12 14:54:26;;;;;;;8.38;5.90;;;;;;;8.68;83.66;102667.47;10255189;29;20508;-79
2023/02/12 14:59:34;;;;;;;7.15;5.00;;;;;;;8.60;83.76;102652.53;10259042;28;20499;-80
2023/02/12 15:04:38;;;;;;;8.70;5.95;;;;;;;8.58;83.89;102651.75;10259580;29;20047;-78
2023/02/12 15:09:47;;;;;;;8.52;5.72;;;;;;;8.65;83.56;102657.75;10263483;28;20054;-80
2023/02/12 15:15:01;;;;;;;8.40;5.50;;;;;;;8.59;83.97;102652.63;10265897;29;20046;-79
2023/02/12 15:20:09;;;;;;;8.35;6.53;;;;;;;8.57;84.33;102649.09;10264810;29;20050;-79
2023/02/12 15:25:21;;;;;;;11.10;7.57;;;;;;;8.53;84.52;102650.13;10256777;29;20039;-80
2023/02/12 15:30:27;;;;;;;9.07;6.13;;;;;;;8.49;85.25;102654.75;10262793;28;20043;-80
2023/02/12 15:35:32;;;;;;;8.80;6.30;;;;;;;8.46;85.03;102654.00;10254844;29;20058;-80
2023/02/12 15:40:36;;;;;;;8.25;5.90;;;;;;;8.34;83.10;102650.78;10263793;28;20111;-78
2023/02/12 15:45:39;;;;;;;8.13;5.95;;;;;;;8.29;83.52;102646.53;10269055;29;20137;-78
2023/02/12 15:50:51;;;;;;;11.52;7.93;;;;;;;8.28;84.29;102651.00;10258570;29;20071;-79
2023/02/12 15:55:56;;;;;;;30.83;17.60;;;;;;;8.29;84.47;102654.56;10271371;29;20070;-79
2023/02/12 16:01:02;;;;;;;19.85;12.77;;;;;;;8.24;83.26;102654.72;10268440;28;20050;-78
2023/02/12 16:06:10;;;;;;;11.02;7.78;;;;;;;8.23;83.69;102655.66;10265262;29;20043;-78
2023/02/12 16:11:20;;;;;;;14.35;9.98;;;;;;;8.21;83.00;102660.19;10269032;28;20039;-78
2023/02/12 16:16:25;;;;;;;12.32;8.80;;;;;;;8.19;82.54;102654.00;10261782;28;20043;-79
2023/02/12 16:21:28;;;;;;;15.75;9.35;;;;;;;8.06;81.57;102661.56;10259627;29;20055;-78
2023/02/12 16:26:33;;;;;;;11.93;8.27;;;;;;;8.06;83.16;102652.66;10261268;29;20059;-79
2023/02/12 16:31:35;;;;;;;12.82;10.23;;;;;;;8.07;82.84;102657.13;10264748;29;20043;-79
2023/02/12 16:36:46;;;;;;;11.05;8.27;;;;;;;8.07;83.18;102657.13;10263427;28;20043;-79
2023/02/12 16:41:55;;;;;;;11.88;8.27;;;;;;;8.00;83.15;102656.44;10260195;29;20047;-79
2023/02/12 16:47:00;;;;;;;13.02;8.90;;;;;;;7.99;83.29;102654.69;10263142;29;20418;-78
2023/02/12 16:52:27;;;;;;;14.35;10.10;;;;;;;8.02;83.38;102659.06;10257431;29;20111;-79
2023/02/12 16:57:31;;;;;;;14.25;10.40;;;;;;;8.01;83.69;102657.31;10263909;29;20048;-79
2023/02/12 17:02:36;;;;;;;12.57;8.20;;;;;;;7.98;83.79;102669.03;10248184;28;20035;-78
2023/02/12 17:07:39;;;;;;;12.77;8.63;;;;;;;7.94;83.94;102662.00;10257821;28;20047;-78
2023/02/12 17:12:46;;;;;;;14.80;10.82;;;;;;;7.97;84.08;102667.25;10262925;29;20040;-79
2023/02/12 17:17:49;;;;;;;17.02;10.57;;;;;;;7.98;84.39;102671.69;10262908;29;20805;-80
2023/02/12 17:22:56;;;;;;;13.52;10.77;;;;;;;7.96;84.32;102681.56;10257749;28;20090;-79
2023/02/12 17:28:00;;;;;;;20.83;13.43;;;;;;;7.91;83.96;102687.06;10249639;28;20135;-78
2023/02/12 17:33:03;;;;;;;16.15;11.13;;;;;;;7.92;84.22;102686.13;10258806;29;20046;-78
2023/02/12 17:38:06;;;;;;;15.68;10.77;;;;;;;7.92;84.36;102685.25;10259657;29;20050;-79
2023/02/12 17:43:11;;;;;;;13.10;9.45;;;;;;;7.93;83.93;102705.75;10273121;28;20090;-81
2023/02/12 17:48:16;;;;;;;14.15;9.63;;;;;;;7.95;83.96;102702.13;10256334;28;20043;-79
2023/02/12 17:53:19;;;;;;;14.00;9.38;;;;;;;7.94;83.97;102716.41;10255452;29;20047;-80
2023/02/12 17:58:23;;;;;;;19.08;12.95;;;;;;;7.88;83.58;102707.72;10260063;28;20499;-80
2023/02/12 18:03:26;;;;;;;23.17;14.65;;;;;;;7.90;84.06;102698.72;10256587;29;20071;-79
2023/02/12 18:08:29;;;;;;;15.57;12.23;;;;;;;7.91;82.89;102699.59;10247540;29;20119;-79
2023/02/12 18:13:34;;;;;;;14.07;10.60;;;;;;;7.87;83.44;102688.13;10230865;29;20479;-79
2023/02/12 18:18:38;;;;;;;14.88;11.43;;;;;;;7.85;83.08;102699.78;10228567;29;20235;-80
2023/02/12 18:23:42;;;;;;;27.52;17.75;;;;;;;7.87;83.40;102696.13;10227389;29;20052;-79
2023/02/12 18:28:46;;;;;;;13.75;9.13;;;;;;;7.87;82.87;102697.91;10235523;29;20120;-79
2023/02/12 18:33:49;;;;;;;11.80;9.38;;;;;;;7.81;82.88;102693.63;10250413;28;20513;-79
2023/02/12 18:38:52;;;;;;;13.73;11.30;;;;;;;7.83;82.52;102702.50;10263381;29;20046;-79
2023/02/12 18:43:58;;;;;;;13.50;10.13;;;;;;;7.81;81.85;102700.81;10269012;29;20047;-80
2023/02/12 18:49:02;;;;;;;14.32;11.75;;;;;;;7.81;82.52;102700.81;10252385;28;20071;-78
2023/02/12 18:54:07;;;;;;;14.93;11.30;;;;;;;7.81;82.23;102696.31;10247821;28;20141;-78
2023/02/12 18:59:14;;;;;;;19.27;12.98;;;;;;;7.78;82.31;102703.59;10250079;29;20043;-79
2023/02/12 19:04:18;;;;;;;18.92;13.93;;;;;;;7.81;82.76;102692.78;10251670;28;20051;-78
2023/02/12 19:09:23;;;;;;;16.02;10.95;;;;;;;7.80;82.78;102699.06;10255075;29;20051;-78
2023/02/12 19:14:28;;;;;;;16.33;11.48;;;;;;;7.75;83.13;102695.66;10254707;29;20043;-79
2023/02/12 19:19:31;;;;;;;21.67;15.60;;;;;;;7.71;83.09;102698.44;10258810;29;20044;-80
2023/02/12 19:24:34;;;;;;;21.70;14.32;;;;;;;7.67;82.42;102696.75;10232264;29;20044;-79
2023/02/12 19:29:50;;;;;;;22.98;15.52;;;;;;;7.68;82.82;102692.31;10259112;28;20051;-79
2023/02/12 19:34:53;;;;;;;24.77;17.58;;;;;;;7.63;82.80;102699.59;10260062;29;20051;-79
2023/02/12 19:39:56;;;;;;;29.75;18.98;;;;;;;7.64;82.92;102698.69;10239721;28;20048;-78
2023/02/12 19:45:00;;;;;;;24.50;17.25;;;;;;;7.63;82.23;102695.13;10255186;29;20388;-79
2023/02/12 19:50:04;;;;;;;22.27;15.63;;;;;;;7.63;82.85;102711.19;10257678;29;20055;-79
2023/02/12 19:55:07;;;;;;;23.10;16.80;;;;;;;7.63;82.68;102708.50;10260923;29;20055;-79
2023/02/12 20:00:13;;;;;;;27.75;17.25;;;;;;;7.62;82.41;102704.06;10256018;28;20071;-79
2023/02/12 20:05:16;;;;;;;51.33;28.48;;;;;;;7.61;81.91;102690.75;10265352;28;20055;-79
2023/02/12 20:10:19;;;;;;;95.93;49.20;;;;;;;7.58;81.70;102704.22;10301777;23;20035;-81
2023/02/12 20:15:25;;;;;;;37.75;23.52;;;;;;;7.57;81.38;102703.34;10277285;29;20046;-79
2023/02/12 20:20:28;;;;;;;27.85;19.58;;;;;;;7.53;81.50;102709.72;10273215;28;20041;-80
2023/02/12 20:25:31;;;;;;;27.08;19.05;;;;;;;7.50;81.21;102707.13;10274664;28;20451;-81
2023/02/12 20:37:04;;;;;;;29.75;20.25;;;;;;;7.44;80.92;102713.56;10261348;29;20051;-81
2023/02/12 20:42:07;;;;;;;31.55;21.08;;;;;;;7.43;80.92;102701.13;10263330;28;20043;-80
2023/02/12 20:47:10;;;;;;;32.20;21.27;;;;;;;7.44;81.32;102713.56;10261777;28;20043;-80
2023/02/12 20:52:14;;;;;;;33.50;21.42;;;;;;;7.43;81.16;102705.56;10261810;28;20412;-80
2023/02/12 20:57:17;;;;;;;28.88;21.48;;;;;;;7.41;81.04;102702.97;10260510;28;20458;-81
2023/02/12 21:02:19;;;;;;;33.47;22.05;;;;;;;7.38;80.98;102700.38;10259768;29;20074;-81
2023/02/12 21:07:24;;;;;;;34.30;22.67;;;;;;;7.38;81.09;102699.50;10261075;28;20059;-80
2023/02/12 21:12:26;;;;;;;40.10;23.25;;;;;;;7.34;80.88;102697.84;10262632;29;20102;-81
2023/02/12 21:17:29;;;;;;;34.35;22.00;;;;;;;7.32;81.03;102699.69;10261969;29;20118;-81
2023/02/12 21:22:34;;;;;;;35.20;22.52;;;;;;;7.34;80.96;102697.84;10267170;28;20482;-80
2023/02/12 21:27:39;;;;;;;36.20;22.15;;;;;;;7.38;81.51;102694.16;10234375;29;20054;-81
2023/02/12 21:32:42;;;;;;;33.97;21.98;;;;;;;7.42;81.48;102702.03;10260491;28;20064;-79
2023/02/12 21:37:46;;;;;;;33.67;22.73;;;;;;;7.42;81.44;102696.66;10260581;28;20118;-79
2023/02/12 21:42:48;;;;;;;32.67;21.63;;;;;;;7.41;81.28;102697.59;10260825;28;20152;-80
2023/02/12 21:47:51;;;;;;;34.50;22.60;;;;;;;7.41;80.79;102694.06;10262049;28;20054;-79
2023/02/12 21:52:55;;;;;;;33.63;23.75;;;;;;;7.40;80.77;102697.63;10266529;28;20474;-78
2023/02/12 21:57:58;;;;;;;34.08;23.48;;;;;;;7.41;80.90;102692.25;10261450;28;20494;-78
2023/02/12 22:03:00;;;;;;;;;;;;;;;7.41;80.91;102688.72;10259853;29;20054;-79
2023/02/12 22:08:05;;;;;;;32.15;22.33;;;;;;;7.36;80.47;102687.97;10266717;28;20009;-78
2023/02/12 22:13:08;;;;;;;36.40;23.60;;;;;;;7.30;80.47;102680.16;10277284;28;20051;-79
2023/02/12 22:18:11;;;;;;;42.67;25.45;;;;;;;7.32;80.76;102678.28;10273624;29;20094;-81
2023/02/12 22:23:15;;;;;;;35.22;22.17;;;;;;;7.34;80.83;102679.13;10275786;28;20078;-79
2023/02/12 22:28:17;;;;;;;33.45;21.25;;;;;;;7.30;80.98;102686.38;10276731;28;20039;-79
2023/02/12 22:33:20;;;;;;;32.97;21.10;;;;;;;7.30;80.45;102682.81;10276273;28;20043;-79
2023/02/12 22:38:24;;;;;;;29.73;19.52;;;;;;;7.32;80.59;102684.50;10275604;29;20075;-78
2023/02/12 22:43:28;;;;;;;33.42;20.42;;;;;;;7.34;80.78;102677.31;10279783;28;20075;-79
2023/02/12 22:48:31;;;;;;;31.92;20.60;;;;;;;7.33;80.53;102680.06;10279006;29;20070;-78
2023/02/12 22:53:35;;;;;;;28.67;19.63;;;;;;;7.34;80.78;102682.66;10295639;28;20050;-79
2023/02/12 22:58:39;;;;;;;28.77;19.60;;;;;;;7.37;80.94;102687.91;10291120;28;20047;-79
2023/02/12 23:03:42;;;;;;;29.60;20.88;;;;;;;7.40;81.09;102690.50;10279645;28;20043;-79
2023/02/12 23:08:49;;;;;;;29.00;19.42;;;;;;;7.37;80.57;102679.88;10279655;28;20123;-80
2023/02/12 23:13:52;;;;;;;25.95;17.63;;;;;;;7.38;80.36;102683.47;10276162;28;20058;-79
2023/02/12 23:18:56;;;;;;;27.05;17.40;;;;;;;7.36;80.58;102674.59;10273761;28;20138;-80
2023/02/12 23:24:00;;;;;;;23.08;17.05;;;;;;;7.41;80.63;102667.31;10276551;28;20051;-79
2023/02/12 23:29:03;;;;;;;23.13;15.35;;;;;;;7.39;80.43;102666.47;10272826;28;20141;-79
2023/02/12 23:34:06;;;;;;;20.92;14.60;;;;;;;7.40;80.37;102665.56;10270657;29;20043;-78
2023/02/12 23:39:12;;;;;;;18.77;12.50;;;;;;;7.40;79.90;102668.22;10270554;29;20047;-79
2023/02/12 23:44:15;;;;;;;19.02;11.80;;;;;;;7.38;79.39;102670.97;10272617;28;20050;-79